sensor_id;sensor_type;location;lat;lon;timestamp;P1;durP1;ratioP1;P2;durP2;ratioP2
2201;SDS011;1107;48.654;9.250;2022-08-11T00:00:21;3.50;;;3.30;;
2201;SDS011;1107;48.654;9.250;2022-08-11T00:03:02;3.87;;;3.67;;
2201;SDS011;1107;48.654;9.250;2022-08-11T00:05:31;3.53;;;3.33;;
2201;SDS011;1107;48.654;9.250;2022-08-11T00:08:08;3.80;;;3.60;;
2201;SDS011;1107;48.654;9.250;2022-08-11T00:10:35;4.03;;;3.60;;
2201;SDS011;1107;48.654;9.250;2022-08-11T00:13:05;3.80;;;3.60;;
2201;SDS011;1107;48.654;9.250;2022-08-11T00:15:37;3.73;;;3.43;;
2201;SDS011;1107;48.654;9.250;2022-08-11T00:18:07;5.40;;;3.60;;
2201;SDS011;1107;48.654;9.250;2022-08-11T00:20:37;4.00;;;3.70;;
2201;SDS011;1107;48.654;9.250;2022-08-11T00:23:06;3.77;;;3.50;;
2201;SDS011;1107;48.654;9.250;2022-08-11T00:25:36;3.43;;;3.23;;
2201;SDS011;1107;48.654;9.250;2022-08-11T00:28:14;4.60;;;4.00;;
2201;SDS011;1107;48.654;9.250;2022-08-11T00:30:50;3.77;;;3.57;;
2201;SDS011;1107;48.654;9.250;2022-08-11T00:33:18;3.80;;;3.60;;
2201;SDS011;1107;48.654;9.250;2022-08-11T00:35:48;3.67;;;3.47;;
2201;SDS011;1107;48.654;9.250;2022-08-11T00:38:16;3.87;;;3.67;;
2201;SDS011;1107;48.654;9.250;2022-08-11T00:40:50;3.77;;;3.47;;
2201;SDS011;1107;48.654;9.250;2022-08-11T00:43:38;4.23;;;4.00;;
2201;SDS011;1107;48.654;9.250;2022-08-11T00:46:16;4.33;;;4.13;;
2201;SDS011;1107;48.654;9.250;2022-08-11T00:48:58;4.57;;;4.10;;
2201;SDS011;1107;48.654;9.250;2022-08-11T00:51:40;3.53;;;3.33;;
2201;SDS011;1107;48.654;9.250;2022-08-11T00:54:21;4.27;;;3.83;;
2201;SDS011;1107;48.654;9.250;2022-08-11T00:57:13;4.00;;;3.80;;
2201;SDS011;1107;48.654;9.250;2022-08-11T00:59:53;6.93;;;3.80;;
2201;SDS011;1107;48.654;9.250;2022-08-11T01:12:04;4.07;;;3.77;;
2201;SDS011;1107;48.654;9.250;2022-08-11T01:18:07;6.20;;;3.70;;
2201;SDS011;1107;48.654;9.250;2022-08-11T01:27:09;5.70;;;3.97;;
2201;SDS011;1107;48.654;9.250;2022-08-11T01:32:55;3.93;;;3.70;;
2201;SDS011;1107;48.654;9.250;2022-08-11T01:36:31;3.83;;;3.53;;
2201;SDS011;1107;48.654;9.250;2022-08-11T01:42:35;4.50;;;4.30;;
2201;SDS011;1107;48.654;9.250;2022-08-11T01:45:45;5.47;;;5.07;;
2201;SDS011;1107;48.654;9.250;2022-08-11T01:48:20;4.27;;;3.97;;
2201;SDS011;1107;48.654;9.250;2022-08-11T01:51:00;4.67;;;4.37;;
2201;SDS011;1107;48.654;9.250;2022-08-11T01:53:43;4.10;;;3.90;;
2201;SDS011;1107;48.654;9.250;2022-08-11T01:59:07;4.60;;;3.80;;
2201;SDS011;1107;48.654;9.250;2022-08-11T02:01:51;4.17;;;3.80;;
2201;SDS011;1107;48.654;9.250;2022-08-11T02:04:30;4.20;;;4.00;;
2201;SDS011;1107;48.654;9.250;2022-08-11T02:07:03;4.80;;;4.50;;
2201;SDS011;1107;48.654;9.250;2022-08-11T02:09:44;8.80;;;4.30;;
2201;SDS011;1107;48.654;9.250;2022-08-11T02:15:11;4.40;;;4.20;;
2201;SDS011;1107;48.654;9.250;2022-08-11T02:17:46;4.23;;;4.03;;
2201;SDS011;1107;48.654;9.250;2022-08-11T02:20:19;4.40;;;4.20;;
2201;SDS011;1107;48.654;9.250;2022-08-11T02:23:24;4.57;;;4.37;;
2201;SDS011;1107;48.654;9.250;2022-08-11T02:26:12;4.70;;;4.40;;
2201;SDS011;1107;48.654;9.250;2022-08-11T02:28:47;4.90;;;4.50;;
2201;SDS011;1107;48.654;9.250;2022-08-11T02:31:24;4.60;;;4.40;;
2201;SDS011;1107;48.654;9.250;2022-08-11T02:34:19;4.03;;;3.73;;
2201;SDS011;1107;48.654;9.250;2022-08-11T02:36:54;4.53;;;4.33;;
2201;SDS011;1107;48.654;9.250;2022-08-11T02:39:27;4.77;;;4.47;;
2201;SDS011;1107;48.654;9.250;2022-08-11T02:42:09;5.73;;;4.30;;
2201;SDS011;1107;48.654;9.250;2022-08-11T02:44:50;5.50;;;4.80;;
2201;SDS011;1107;48.654;9.250;2022-08-11T02:47:34;4.33;;;4.13;;
2201;SDS011;1107;48.654;9.250;2022-08-11T02:50:28;4.70;;;4.40;;
2201;SDS011;1107;48.654;9.250;2022-08-11T02:53:00;5.10;;;4.70;;
2201;SDS011;1107;48.654;9.250;2022-08-11T02:55:34;5.50;;;4.70;;
2201;SDS011;1107;48.654;9.250;2022-08-11T02:58:13;5.20;;;4.70;;
2201;SDS011;1107;48.654;9.250;2022-08-11T03:00:46;13.90;;;4.10;;
2201;SDS011;1107;48.654;9.250;2022-08-11T03:03:18;4.50;;;4.30;;
2201;SDS011;1107;48.654;9.250;2022-08-11T03:06:00;4.80;;;4.50;;
2201;SDS011;1107;48.654;9.250;2022-08-11T03:08:49;4.90;;;4.50;;
2201;SDS011;1107;48.654;9.250;2022-08-11T03:11:30;5.00;;;4.70;;
2201;SDS011;1107;48.654;9.250;2022-08-11T03:14:32;4.77;;;4.47;;
2201;SDS011;1107;48.654;9.250;2022-08-11T03:17:27;4.20;;;4.00;;
2201;SDS011;1107;48.654;9.250;2022-08-11T03:22:50;5.93;;;4.40;;
2201;SDS011;1107;48.654;9.250;2022-08-11T03:25:24;4.40;;;4.20;;
2201;SDS011;1107;48.654;9.250;2022-08-11T03:27:58;4.53;;;4.33;;
2201;SDS011;1107;48.654;9.250;2022-08-11T03:30:32;5.30;;;4.40;;
2201;SDS011;1107;48.654;9.250;2022-08-11T03:33:14;5.07;;;4.63;;
2201;SDS011;1107;48.654;9.250;2022-08-11T03:36:09;5.10;;;4.70;;
2201;SDS011;1107;48.654;9.250;2022-08-11T03:38:59;7.60;;;4.50;;
2201;SDS011;1107;48.654;9.250;2022-08-11T03:41:33;4.60;;;4.40;;
2201;SDS011;1107;48.654;9.250;2022-08-11T03:44:09;5.70;;;5.30;;
2201;SDS011;1107;48.654;9.250;2022-08-11T03:46:58;5.03;;;4.83;;
2201;SDS011;1107;48.654;9.250;2022-08-11T03:49:48;5.20;;;4.90;;
2201;SDS011;1107;48.654;9.250;2022-08-11T03:52:27;5.00;;;4.80;;
2201;SDS011;1107;48.654;9.250;2022-08-11T03:55:08;5.27;;;4.83;;
2201;SDS011;1107;48.654;9.250;2022-08-11T03:57:56;5.30;;;5.10;;
2201;SDS011;1107;48.654;9.250;2022-08-11T04:01:14;4.60;;;4.30;;
2201;SDS011;1107;48.654;9.250;2022-08-11T04:04:17;5.60;;;5.20;;
2201;SDS011;1107;48.654;9.250;2022-08-11T04:07:17;5.93;;;5.33;;
2201;SDS011;1107;48.654;9.250;2022-08-11T04:13:07;8.80;;;8.13;;
2201;SDS011;1107;48.654;9.250;2022-08-11T04:19:07;6.23;;;5.70;;
2201;SDS011;1107;48.654;9.250;2022-08-11T04:22:21;5.20;;;4.90;;
2201;SDS011;1107;48.654;9.250;2022-08-11T04:25:10;5.23;;;4.73;;
2201;SDS011;1107;48.654;9.250;2022-08-11T04:30:57;5.20;;;5.00;;
2201;SDS011;1107;48.654;9.250;2022-08-11T04:33:35;5.43;;;5.00;;
2201;SDS011;1107;48.654;9.250;2022-08-11T04:36:34;5.03;;;4.63;;
2201;SDS011;1107;48.654;9.250;2022-08-11T04:39:38;5.23;;;4.93;;
2201;SDS011;1107;48.654;9.250;2022-08-11T04:45:39;5.00;;;4.67;;
2201;SDS011;1107;48.654;9.250;2022-08-11T04:48:38;5.10;;;4.63;;
2201;SDS011;1107;48.654;9.250;2022-08-11T04:51:42;11.97;;;5.00;;
2201;SDS011;1107;48.654;9.250;2022-08-11T04:54:56;5.33;;;4.77;;
2201;SDS011;1107;48.654;9.250;2022-08-11T04:58:00;5.37;;;5.13;;
2201;SDS011;1107;48.654;9.250;2022-08-11T05:00:55;4.67;;;4.37;;
2201;SDS011;1107;48.654;9.250;2022-08-11T05:06:56;5.23;;;4.73;;
2201;SDS011;1107;48.654;9.250;2022-08-11T05:10:09;5.03;;;4.73;;
2201;SDS011;1107;48.654;9.250;2022-08-11T05:12:45;5.20;;;4.90;;
2201;SDS011;1107;48.654;9.250;2022-08-11T05:15:18;4.73;;;4.43;;
2201;SDS011;1107;48.654;9.250;2022-08-11T05:18:08;4.80;;;4.60;;
2201;SDS011;1107;48.654;9.250;2022-08-11T05:21:00;5.20;;;5.00;;
2201;SDS011;1107;48.654;9.250;2022-08-11T05:23:51;5.23;;;5.03;;
2201;SDS011;1107;48.654;9.250;2022-08-11T05:26:43;5.40;;;5.00;;
2201;SDS011;1107;48.654;9.250;2022-08-11T05:29:40;4.90;;;4.50;;
2201;SDS011;1107;48.654;9.250;2022-08-11T05:32:29;5.03;;;4.63;;
2201;SDS011;1107;48.654;9.250;2022-08-11T05:35:22;4.93;;;4.63;;
2201;SDS011;1107;48.654;9.250;2022-08-11T05:37:52;5.23;;;4.80;;
2201;SDS011;1107;48.654;9.250;2022-08-11T05:40:45;5.20;;;5.00;;
2201;SDS011;1107;48.654;9.250;2022-08-11T05:43:33;5.57;;;5.03;;
2201;SDS011;1107;48.654;9.250;2022-08-11T05:46:26;7.20;;;4.70;;
2201;SDS011;1107;48.654;9.250;2022-08-11T05:49:12;5.47;;;5.03;;
2201;SDS011;1107;48.654;9.250;2022-08-11T05:51:57;7.17;;;5.60;;
2201;SDS011;1107;48.654;9.250;2022-08-11T05:54:42;5.50;;;5.20;;
2201;SDS011;1107;48.654;9.250;2022-08-11T05:57:28;5.00;;;4.80;;
2201;SDS011;1107;48.654;9.250;2022-08-11T05:59:59;5.50;;;5.07;;
2201;SDS011;1107;48.654;9.250;2022-08-11T06:02:38;5.03;;;4.83;;
2201;SDS011;1107;48.654;9.250;2022-08-11T06:05:06;5.20;;;4.90;;
2201;SDS011;1107;48.654;9.250;2022-08-11T06:07:34;6.47;;;5.70;;
2201;SDS011;1107;48.654;9.250;2022-08-11T06:10:02;6.60;;;5.33;;
2201;SDS011;1107;48.654;9.250;2022-08-11T06:12:30;5.13;;;4.83;;
2201;SDS011;1107;48.654;9.250;2022-08-11T06:15:04;4.90;;;4.60;;
2201;SDS011;1107;48.654;9.250;2022-08-11T06:17:33;4.97;;;4.77;;
2201;SDS011;1107;48.654;9.250;2022-08-11T06:20:10;5.03;;;4.60;;
2201;SDS011;1107;48.654;9.250;2022-08-11T06:22:38;5.40;;;5.10;;
2201;SDS011;1107;48.654;9.250;2022-08-11T06:25:09;4.77;;;4.47;;
2201;SDS011;1107;48.654;9.250;2022-08-11T06:27:38;14.83;;;5.57;;
2201;SDS011;1107;48.654;9.250;2022-08-11T06:30:08;5.03;;;4.73;;
2201;SDS011;1107;48.654;9.250;2022-08-11T06:32:40;5.20;;;4.60;;
2201;SDS011;1107;48.654;9.250;2022-08-11T06:35:11;5.17;;;4.87;;
2201;SDS011;1107;48.654;9.250;2022-08-11T06:37:52;5.10;;;4.70;;
2201;SDS011;1107;48.654;9.250;2022-08-11T06:40:30;4.83;;;4.63;;
2201;SDS011;1107;48.654;9.250;2022-08-11T06:43:04;5.50;;;5.10;;
2201;SDS011;1107;48.654;9.250;2022-08-11T06:45:39;4.60;;;4.40;;
2201;SDS011;1107;48.654;9.250;2022-08-11T06:48:14;5.60;;;5.17;;
2201;SDS011;1107;48.654;9.250;2022-08-11T06:50:47;5.90;;;5.40;;
2201;SDS011;1107;48.654;9.250;2022-08-11T06:53:33;5.60;;;5.30;;
2201;SDS011;1107;48.654;9.250;2022-08-11T06:56:01;4.80;;;4.60;;
2201;SDS011;1107;48.654;9.250;2022-08-11T06:58:46;5.00;;;4.80;;
2201;SDS011;1107;48.654;9.250;2022-08-11T07:01:39;6.70;;;4.70;;
2201;SDS011;1107;48.654;9.250;2022-08-11T07:04:12;5.70;;;5.30;;
2201;SDS011;1107;48.654;9.250;2022-08-11T07:06:56;5.03;;;4.80;;
2201;SDS011;1107;48.654;9.250;2022-08-11T07:13:02;5.40;;;4.97;;
2201;SDS011;1107;48.654;9.250;2022-08-11T07:15:47;4.70;;;4.40;;
2201;SDS011;1107;48.654;9.250;2022-08-11T07:18:24;5.00;;;4.80;;
2201;SDS011;1107;48.654;9.250;2022-08-11T07:21:13;4.93;;;4.43;;
2201;SDS011;1107;48.654;9.250;2022-08-11T07:24:02;5.60;;;5.10;;
2201;SDS011;1107;48.654;9.250;2022-08-11T07:26:52;6.33;;;4.50;;
2201;SDS011;1107;48.654;9.250;2022-08-11T07:29:38;5.23;;;4.93;;
2201;SDS011;1107;48.654;9.250;2022-08-11T07:32:14;5.07;;;4.70;;
2201;SDS011;1107;48.654;9.250;2022-08-11T07:34:51;5.23;;;4.80;;
2201;SDS011;1107;48.654;9.250;2022-08-11T07:37:25;6.60;;;5.00;;
2201;SDS011;1107;48.654;9.250;2022-08-11T07:39:56;5.17;;;4.77;;
2201;SDS011;1107;48.654;9.250;2022-08-11T07:42:26;5.80;;;4.93;;
2201;SDS011;1107;48.654;9.250;2022-08-11T07:44:56;5.20;;;4.80;;
2201;SDS011;1107;48.654;9.250;2022-08-11T07:47:42;5.20;;;4.80;;
2201;SDS011;1107;48.654;9.250;2022-08-11T07:50:29;5.00;;;4.50;;
2201;SDS011;1107;48.654;9.250;2022-08-11T07:53:14;4.50;;;4.30;;
2201;SDS011;1107;48.654;9.250;2022-08-11T07:55:43;4.63;;;4.43;;
2201;SDS011;1107;48.654;9.250;2022-08-11T07:58:13;5.23;;;4.47;;
2201;SDS011;1107;48.654;9.250;2022-08-11T08:00:58;5.20;;;4.90;;
2201;SDS011;1107;48.654;9.250;2022-08-11T08:03:43;6.10;;;5.80;;
2201;SDS011;1107;48.654;9.250;2022-08-11T08:06:31;5.20;;;5.00;;
2201;SDS011;1107;48.654;9.250;2022-08-11T08:09:18;7.00;;;5.23;;
2201;SDS011;1107;48.654;9.250;2022-08-11T08:12:04;5.07;;;4.57;;
2201;SDS011;1107;48.654;9.250;2022-08-11T08:14:50;6.50;;;4.67;;
2201;SDS011;1107;48.654;9.250;2022-08-11T08:17:36;5.23;;;5.00;;
2201;SDS011;1107;48.654;9.250;2022-08-11T08:20:16;4.93;;;4.73;;
2201;SDS011;1107;48.654;9.250;2022-08-11T08:22:48;5.83;;;4.50;;
2201;SDS011;1107;48.654;9.250;2022-08-11T08:25:22;5.47;;;5.00;;
2201;SDS011;1107;48.654;9.250;2022-08-11T08:27:50;4.80;;;4.60;;
2201;SDS011;1107;48.654;9.250;2022-08-11T08:30:18;5.53;;;4.83;;
2201;SDS011;1107;48.654;9.250;2022-08-11T08:33:03;6.50;;;4.40;;
2201;SDS011;1107;48.654;9.250;2022-08-11T08:35:30;7.03;;;4.67;;
2201;SDS011;1107;48.654;9.250;2022-08-11T08:38:00;5.07;;;4.60;;
2201;SDS011;1107;48.654;9.250;2022-08-11T08:40:28;4.97;;;4.57;;
2201;SDS011;1107;48.654;9.250;2022-08-11T08:42:56;6.93;;;4.43;;
2201;SDS011;1107;48.654;9.250;2022-08-11T08:45:35;4.83;;;4.50;;
2201;SDS011;1107;48.654;9.250;2022-08-11T08:48:03;4.70;;;4.40;;
2201;SDS011;1107;48.654;9.250;2022-08-11T08:50:35;8.13;;;4.47;;
2201;SDS011;1107;48.654;9.250;2022-08-11T08:53:27;5.30;;;4.90;;
2201;SDS011;1107;48.654;9.250;2022-08-11T08:55:57;4.70;;;4.40;;
2201;SDS011;1107;48.654;9.250;2022-08-11T08:58:26;4.90;;;4.67;;
2201;SDS011;1107;48.654;9.250;2022-08-11T09:00:55;4.70;;;4.47;;
2201;SDS011;1107;48.654;9.250;2022-08-11T09:03:23;5.60;;;5.30;;
2201;SDS011;1107;48.654;9.250;2022-08-11T09:05:52;5.60;;;4.33;;
2201;SDS011;1107;48.654;9.250;2022-08-11T09:08:20;5.13;;;4.73;;
2201;SDS011;1107;48.654;9.250;2022-08-11T09:10:49;4.33;;;4.00;;
2201;SDS011;1107;48.654;9.250;2022-08-11T09:13:31;4.53;;;4.30;;
2201;SDS011;1107;48.654;9.250;2022-08-11T09:15:59;4.07;;;3.87;;
2201;SDS011;1107;48.654;9.250;2022-08-11T09:18:27;4.20;;;3.90;;
2201;SDS011;1107;48.654;9.250;2022-08-11T09:20:55;3.97;;;3.67;;
2201;SDS011;1107;48.654;9.250;2022-08-11T09:23:22;4.50;;;4.20;;
2201;SDS011;1107;48.654;9.250;2022-08-11T09:26:10;4.20;;;3.90;;
2201;SDS011;1107;48.654;9.250;2022-08-11T09:28:54;3.87;;;3.63;;
2201;SDS011;1107;48.654;9.250;2022-08-11T09:31:24;4.23;;;4.03;;
2201;SDS011;1107;48.654;9.250;2022-08-11T09:33:53;4.07;;;3.87;;
2201;SDS011;1107;48.654;9.250;2022-08-11T09:36:20;4.27;;;3.90;;
2201;SDS011;1107;48.654;9.250;2022-08-11T09:39:05;3.93;;;3.73;;
2201;SDS011;1107;48.654;9.250;2022-08-11T09:41:52;4.40;;;4.20;;
2201;SDS011;1107;48.654;9.250;2022-08-11T09:44:19;4.10;;;3.90;;
2201;SDS011;1107;48.654;9.250;2022-08-11T09:47:04;3.93;;;3.73;;
2201;SDS011;1107;48.654;9.250;2022-08-11T09:49:37;3.83;;;3.53;;
2201;SDS011;1107;48.654;9.250;2022-08-11T09:52:05;3.90;;;3.70;;
2201;SDS011;1107;48.654;9.250;2022-08-11T09:54:33;3.67;;;3.47;;
2201;SDS011;1107;48.654;9.250;2022-08-11T09:57:02;4.03;;;3.77;;
2201;SDS011;1107;48.654;9.250;2022-08-11T09:59:48;3.80;;;3.60;;
2201;SDS011;1107;48.654;9.250;2022-08-11T10:02:17;4.00;;;3.70;;
2201;SDS011;1107;48.654;9.250;2022-08-11T10:04:51;3.70;;;3.50;;
2201;SDS011;1107;48.654;9.250;2022-08-11T10:07:43;3.70;;;3.50;;
2201;SDS011;1107;48.654;9.250;2022-08-11T10:10:15;4.13;;;3.83;;
2201;SDS011;1107;48.654;9.250;2022-08-11T10:12:48;3.63;;;3.43;;
2201;SDS011;1107;48.654;9.250;2022-08-11T10:15:19;3.17;;;2.97;;
2201;SDS011;1107;48.654;9.250;2022-08-11T10:18:05;6.27;;;3.07;;
2201;SDS011;1107;48.654;9.250;2022-08-11T10:20:54;3.40;;;3.10;;
2201;SDS011;1107;48.654;9.250;2022-08-11T10:23:25;3.20;;;3.00;;
2201;SDS011;1107;48.654;9.250;2022-08-11T10:26:13;3.07;;;2.87;;
2201;SDS011;1107;48.654;9.250;2022-08-11T10:29:00;3.10;;;2.90;;
2201;SDS011;1107;48.654;9.250;2022-08-11T10:31:51;3.70;;;3.40;;
2201;SDS011;1107;48.654;9.250;2022-08-11T10:34:33;5.73;;;3.00;;
2201;SDS011;1107;48.654;9.250;2022-08-11T10:37:02;3.30;;;3.10;;
2201;SDS011;1107;48.654;9.250;2022-08-11T10:39:35;3.50;;;3.30;;
2201;SDS011;1107;48.654;9.250;2022-08-11T10:42:04;16.93;;;3.50;;
2201;SDS011;1107;48.654;9.250;2022-08-11T10:44:51;3.27;;;2.97;;
2201;SDS011;1107;48.654;9.250;2022-08-11T10:47:20;6.50;;;3.30;;
2201;SDS011;1107;48.654;9.250;2022-08-11T10:50:04;3.30;;;3.10;;
2201;SDS011;1107;48.654;9.250;2022-08-11T10:52:52;3.50;;;3.20;;
2201;SDS011;1107;48.654;9.250;2022-08-11T10:55:38;3.27;;;3.07;;
2201;SDS011;1107;48.654;9.250;2022-08-11T10:58:26;3.33;;;2.90;;
2201;SDS011;1107;48.654;9.250;2022-08-11T11:01:15;3.13;;;2.93;;
2201;SDS011;1107;48.654;9.250;2022-08-11T11:03:48;2.93;;;2.73;;
2201;SDS011;1107;48.654;9.250;2022-08-11T11:06:20;3.43;;;3.23;;
2201;SDS011;1107;48.654;9.250;2022-08-11T11:08:51;3.43;;;3.23;;
2201;SDS011;1107;48.654;9.250;2022-08-11T11:11:23;4.13;;;3.03;;
2201;SDS011;1107;48.654;9.250;2022-08-11T11:14:14;3.13;;;2.93;;
2201;SDS011;1107;48.654;9.250;2022-08-11T11:17:02;3.20;;;3.00;;
2201;SDS011;1107;48.654;9.250;2022-08-11T11:19:49;3.73;;;3.53;;
2201;SDS011;1107;48.654;9.250;2022-08-11T11:22:19;4.50;;;3.27;;
2201;SDS011;1107;48.654;9.250;2022-08-11T11:25:19;3.00;;;2.80;;
2201;SDS011;1107;48.654;9.250;2022-08-11T11:27:56;3.20;;;3.00;;
2201;SDS011;1107;48.654;9.250;2022-08-11T11:30:34;3.53;;;3.33;;
2201;SDS011;1107;48.654;9.250;2022-08-11T11:33:10;3.30;;;3.10;;
2201;SDS011;1107;48.654;9.250;2022-08-11T11:35:47;3.60;;;3.40;;
2201;SDS011;1107;48.654;9.250;2022-08-11T11:38:23;6.53;;;2.97;;
2201;SDS011;1107;48.654;9.250;2022-08-11T11:40:51;3.97;;;2.90;;
2201;SDS011;1107;48.654;9.250;2022-08-11T11:43:32;3.13;;;2.83;;
2201;SDS011;1107;48.654;9.250;2022-08-11T11:46:01;3.40;;;3.20;;
2201;SDS011;1107;48.654;9.250;2022-08-11T11:48:33;2.90;;;2.70;;
2201;SDS011;1107;48.654;9.250;2022-08-11T11:51:02;2.90;;;2.70;;
2201;SDS011;1107;48.654;9.250;2022-08-11T11:53:29;2.93;;;2.73;;
2201;SDS011;1107;48.654;9.250;2022-08-11T11:55:57;3.73;;;3.43;;
2201;SDS011;1107;48.654;9.250;2022-08-11T11:58:25;3.70;;;2.90;;
2201;SDS011;1107;48.654;9.250;2022-08-11T12:01:11;3.60;;;3.30;;
2201;SDS011;1107;48.654;9.250;2022-08-11T12:03:45;3.10;;;2.80;;
2201;SDS011;1107;48.654;9.250;2022-08-11T12:06:16;8.67;;;2.70;;
2201;SDS011;1107;48.654;9.250;2022-08-11T12:08:47;3.10;;;2.90;;
2201;SDS011;1107;48.654;9.250;2022-08-11T12:11:15;2.97;;;2.77;;
2201;SDS011;1107;48.654;9.250;2022-08-11T12:14:02;10.93;;;2.80;;
2201;SDS011;1107;48.654;9.250;2022-08-11T12:16:31;5.77;;;3.10;;
2201;SDS011;1107;48.654;9.250;2022-08-11T12:19:04;3.53;;;2.63;;
2201;SDS011;1107;48.654;9.250;2022-08-11T12:21:35;2.50;;;2.40;;
2201;SDS011;1107;48.654;9.250;2022-08-11T12:24:23;3.30;;;3.03;;
2201;SDS011;1107;48.654;9.250;2022-08-11T12:27:08;8.57;;;2.97;;
2201;SDS011;1107;48.654;9.250;2022-08-11T12:29:48;2.90;;;2.70;;
2201;SDS011;1107;48.654;9.250;2022-08-11T12:32:17;2.63;;;2.43;;
2201;SDS011;1107;48.654;9.250;2022-08-11T12:34:46;3.13;;;2.93;;
2201;SDS011;1107;48.654;9.250;2022-08-11T12:37:15;3.33;;;2.90;;
2201;SDS011;1107;48.654;9.250;2022-08-11T12:39:48;3.20;;;3.00;;
2201;SDS011;1107;48.654;9.250;2022-08-11T12:42:34;3.10;;;2.90;;
2201;SDS011;1107;48.654;9.250;2022-08-11T12:45:21;2.67;;;2.50;;
2201;SDS011;1107;48.654;9.250;2022-08-11T12:47:58;3.40;;;3.20;;
2201;SDS011;1107;48.654;9.250;2022-08-11T12:50:51;3.07;;;2.87;;
2201;SDS011;1107;48.654;9.250;2022-08-11T12:53:41;3.30;;;2.80;;
2201;SDS011;1107;48.654;9.250;2022-08-11T12:56:12;3.47;;;3.27;;
2201;SDS011;1107;48.654;9.250;2022-08-11T12:58:56;3.23;;;3.03;;
2201;SDS011;1107;48.654;9.250;2022-08-11T13:01:44;3.20;;;2.90;;
2201;SDS011;1107;48.654;9.250;2022-08-11T13:04:28;3.20;;;2.97;;
2201;SDS011;1107;48.654;9.250;2022-08-11T13:07:15;7.57;;;3.17;;
2201;SDS011;1107;48.654;9.250;2022-08-11T13:09:43;3.10;;;2.80;;
2201;SDS011;1107;48.654;9.250;2022-08-11T13:12:11;2.80;;;2.60;;
2201;SDS011;1107;48.654;9.250;2022-08-11T13:14:56;6.47;;;5.83;;
2201;SDS011;1107;48.654;9.250;2022-08-11T13:17:25;2.90;;;2.70;;
2201;SDS011;1107;48.654;9.250;2022-08-11T13:19:54;3.10;;;2.90;;
2201;SDS011;1107;48.654;9.250;2022-08-11T13:22:25;3.30;;;3.00;;
2201;SDS011;1107;48.654;9.250;2022-08-11T13:24:52;3.50;;;3.00;;
2201;SDS011;1107;48.654;9.250;2022-08-11T13:27:22;2.90;;;2.50;;
2201;SDS011;1107;48.654;9.250;2022-08-11T13:29:50;3.37;;;3.17;;
2201;SDS011;1107;48.654;9.250;2022-08-11T13:32:39;2.93;;;2.73;;
2201;SDS011;1107;48.654;9.250;2022-08-11T13:35:07;3.20;;;3.00;;
2201;SDS011;1107;48.654;9.250;2022-08-11T13:37:39;2.70;;;2.60;;
2201;SDS011;1107;48.654;9.250;2022-08-11T13:40:08;2.80;;;2.50;;
2201;SDS011;1107;48.654;9.250;2022-08-11T13:42:36;2.77;;;2.40;;
2201;SDS011;1107;48.654;9.250;2022-08-11T13:45:05;3.30;;;3.10;;
2201;SDS011;1107;48.654;9.250;2022-08-11T13:47:33;3.03;;;2.83;;
2201;SDS011;1107;48.654;9.250;2022-08-11T13:50:02;2.83;;;2.63;;
2201;SDS011;1107;48.654;9.250;2022-08-11T13:52:31;4.47;;;2.80;;
2201;SDS011;1107;48.654;9.250;2022-08-11T13:55:01;2.90;;;2.70;;
2201;SDS011;1107;48.654;9.250;2022-08-11T13:57:29;3.37;;;3.10;;
2201;SDS011;1107;48.654;9.250;2022-08-11T13:59:58;11.20;;;2.80;;
2201;SDS011;1107;48.654;9.250;2022-08-11T14:02:35;6.70;;;2.80;;
2201;SDS011;1107;48.654;9.250;2022-08-11T14:05:07;3.30;;;3.10;;
2201;SDS011;1107;48.654;9.250;2022-08-11T14:07:40;3.37;;;3.17;;
2201;SDS011;1107;48.654;9.250;2022-08-11T14:10:20;2.77;;;2.57;;
2201;SDS011;1107;48.654;9.250;2022-08-11T14:12:50;2.80;;;2.60;;
2201;SDS011;1107;48.654;9.250;2022-08-11T14:15:43;2.90;;;2.70;;
2201;SDS011;1107;48.654;9.250;2022-08-11T14:18:12;3.00;;;2.80;;
2201;SDS011;1107;48.654;9.250;2022-08-11T14:20:45;2.70;;;2.50;;
2201;SDS011;1107;48.654;9.250;2022-08-11T14:23:34;8.17;;;2.87;;
2201;SDS011;1107;48.654;9.250;2022-08-11T14:26:05;3.13;;;2.87;;
2201;SDS011;1107;48.654;9.250;2022-08-11T14:28:51;3.60;;;2.57;;
2201;SDS011;1107;48.654;9.250;2022-08-11T14:31:20;2.90;;;2.70;;
2201;SDS011;1107;48.654;9.250;2022-08-11T14:33:50;2.77;;;2.57;;
2201;SDS011;1107;48.654;9.250;2022-08-11T14:36:21;3.07;;;2.87;;
2201;SDS011;1107;48.654;9.250;2022-08-11T14:38:50;2.70;;;2.50;;
2201;SDS011;1107;48.654;9.250;2022-08-11T14:41:20;3.50;;;2.80;;
2201;SDS011;1107;48.654;9.250;2022-08-11T14:44:06;3.77;;;3.40;;
2201;SDS011;1107;48.654;9.250;2022-08-11T14:46:52;3.20;;;3.00;;
2201;SDS011;1107;48.654;9.250;2022-08-11T14:49:30;3.17;;;2.97;;
2201;SDS011;1107;48.654;9.250;2022-08-11T14:51:59;2.80;;;2.60;;
2201;SDS011;1107;48.654;9.250;2022-08-11T14:54:28;2.77;;;2.57;;
2201;SDS011;1107;48.654;9.250;2022-08-11T14:57:15;3.03;;;2.83;;
2201;SDS011;1107;48.654;9.250;2022-08-11T14:59:44;3.10;;;2.90;;
2201;SDS011;1107;48.654;9.250;2022-08-11T15:02:13;3.60;;;2.83;;
2201;SDS011;1107;48.654;9.250;2022-08-11T15:04:59;2.90;;;2.70;;
2201;SDS011;1107;48.654;9.250;2022-08-11T15:07:28;7.10;;;2.93;;
2201;SDS011;1107;48.654;9.250;2022-08-11T15:09:56;3.47;;;3.27;;
2201;SDS011;1107;48.654;9.250;2022-08-11T15:12:26;2.80;;;2.60;;
2201;SDS011;1107;48.654;9.250;2022-08-11T15:14:55;3.40;;;3.20;;
2201;SDS011;1107;48.654;9.250;2022-08-11T15:17:40;3.03;;;2.83;;
2201;SDS011;1107;48.654;9.250;2022-08-11T15:20:10;3.30;;;3.10;;
2201;SDS011;1107;48.654;9.250;2022-08-11T15:22:58;3.87;;;2.80;;
2201;SDS011;1107;48.654;9.250;2022-08-11T15:25:45;3.27;;;3.07;;
2201;SDS011;1107;48.654;9.250;2022-08-11T15:28:17;2.83;;;2.63;;
2201;SDS011;1107;48.654;9.250;2022-08-11T15:31:04;4.60;;;3.60;;
2201;SDS011;1107;48.654;9.250;2022-08-11T15:33:50;6.90;;;2.77;;
2201;SDS011;1107;48.654;9.250;2022-08-11T15:36:36;3.03;;;2.83;;
2201;SDS011;1107;48.654;9.250;2022-08-11T15:39:23;3.20;;;2.60;;
2201;SDS011;1107;48.654;9.250;2022-08-11T15:41:56;5.30;;;3.27;;
2201;SDS011;1107;48.654;9.250;2022-08-11T15:44:46;3.53;;;3.23;;
2201;SDS011;1107;48.654;9.250;2022-08-11T15:47:37;3.37;;;3.17;;
2201;SDS011;1107;48.654;9.250;2022-08-11T15:50:09;3.20;;;3.00;;
2201;SDS011;1107;48.654;9.250;2022-08-11T15:52:42;3.10;;;2.90;;
2201;SDS011;1107;48.654;9.250;2022-08-11T15:55:13;3.13;;;2.93;;
2201;SDS011;1107;48.654;9.250;2022-08-11T15:57:41;6.80;;;2.87;;
2201;SDS011;1107;48.654;9.250;2022-08-11T16:00:28;3.27;;;3.07;;
2201;SDS011;1107;48.654;9.250;2022-08-11T16:03:13;3.00;;;2.80;;
2201;SDS011;1107;48.654;9.250;2022-08-11T16:06:00;3.20;;;3.00;;
2201;SDS011;1107;48.654;9.250;2022-08-11T16:08:27;5.33;;;2.77;;
2201;SDS011;1107;48.654;9.250;2022-08-11T16:10:55;2.90;;;2.70;;
2201;SDS011;1107;48.654;9.250;2022-08-11T16:13:22;3.20;;;3.00;;
2201;SDS011;1107;48.654;9.250;2022-08-11T16:16:20;2.60;;;2.50;;
2201;SDS011;1107;48.654;9.250;2022-08-11T16:18:49;3.07;;;2.87;;
2201;SDS011;1107;48.654;9.250;2022-08-11T16:21:21;3.90;;;3.10;;
2201;SDS011;1107;48.654;9.250;2022-08-11T16:23:52;3.53;;;2.90;;
2201;SDS011;1107;48.654;9.250;2022-08-11T16:26:23;3.57;;;3.33;;
2201;SDS011;1107;48.654;9.250;2022-08-11T16:28:52;7.13;;;2.90;;
2201;SDS011;1107;48.654;9.250;2022-08-11T16:31:23;5.53;;;3.30;;
2201;SDS011;1107;48.654;9.250;2022-08-11T16:33:51;3.10;;;2.90;;
2201;SDS011;1107;48.654;9.250;2022-08-11T16:36:19;3.20;;;3.00;;
2201;SDS011;1107;48.654;9.250;2022-08-11T16:39:06;4.20;;;2.87;;
2201;SDS011;1107;48.654;9.250;2022-08-11T16:41:35;9.23;;;3.50;;
2201;SDS011;1107;48.654;9.250;2022-08-11T16:44:22;2.87;;;2.50;;
2201;SDS011;1107;48.654;9.250;2022-08-11T16:47:11;3.10;;;2.90;;
2201;SDS011;1107;48.654;9.250;2022-08-11T16:49:42;3.50;;;2.70;;
2201;SDS011;1107;48.654;9.250;2022-08-11T16:52:11;3.33;;;3.03;;
2201;SDS011;1107;48.654;9.250;2022-08-11T16:54:39;3.13;;;2.93;;
2201;SDS011;1107;48.654;9.250;2022-08-11T16:57:07;2.90;;;2.70;;
2201;SDS011;1107;48.654;9.250;2022-08-11T16:59:54;3.50;;;3.23;;
2201;SDS011;1107;48.654;9.250;2022-08-11T17:02:28;3.20;;;3.00;;
2201;SDS011;1107;48.654;9.250;2022-08-11T17:05:18;2.93;;;2.73;;
2201;SDS011;1107;48.654;9.250;2022-08-11T17:08:06;4.93;;;3.20;;
2201;SDS011;1107;48.654;9.250;2022-08-11T17:10:55;5.70;;;3.47;;
2201;SDS011;1107;48.654;9.250;2022-08-11T17:13:41;3.37;;;2.83;;
2201;SDS011;1107;48.654;9.250;2022-08-11T17:16:13;3.60;;;3.40;;
2201;SDS011;1107;48.654;9.250;2022-08-11T17:18:48;3.70;;;3.40;;